Hayase Maru — JD2583 — position and weather

sailwx.info

Track history (hours):
 
Tides and Currents Weather Stations Pressure Air Temp Water Temp Dewpoint Dewpoint Depression Visibility Wind Speed Wind Dir Waves Ship Positions

Hayase Maru

Last reported at 2018-Apr-20 03:15 UTC. Time now 2018-Apr-21 19:16 UTC.
Position N 34°58' E 140°07'.

Length 73 m; draft 4 m.

Type: Ship. MMSI: 431000395.

Date/timePositionNaut miles runAvg speedWind from/ knotsBaromVisibWave heightAir tempDewpointWater temp
2018-Apr-20 03:15N 34°58' E 140°07'412.6
2018-Apr-20 02:58N 34°56' E 140°03'1112.3
2018-Apr-20 02:04N 34°51' E 139°51'1212.9
2018-Apr-20 01:10N 34°50' E 139°37'1812.9
2018-Apr-19 23:48N 34°46' E 139°16'3 9.4
2018-Apr-19 23:26N 34°44' E 139°12'512.5
2018-Apr-19 23:00N 34°42' E 139°07'712.1
2018-Apr-19 22:24N 34°37' E 138°60'20210.9
2018-Apr-19 03:56N 33°52' E 135°01'613.1
2018-Apr-19 03:29N 33°57' E 134°57'612.8
2018-Apr-19 03:00N 34°01' E 134°52'612.7
2018-Apr-19 02:30N 34°06' E 134°47'712.8
2018-Apr-19 01:56N 34°12' E 134°41'611.5
2018-Apr-19 01:23N 34°16' E 134°36'512.4
2018-Apr-19 01:00N 34°18' E 134°31'612.4
2018-Apr-19 00:30N 34°21' E 134°24'612.0
2018-Apr-18 23:58N 34°24' E 134°17'8010.6
2018-Apr-18 16:25N 33°60' E 132°45'512.9
2018-Apr-18 16:00N 33°56' E 132°41'3412.7
2018-Apr-18 13:20N 33°46' E 132°02'511.1
2018-Apr-18 12:52N 33°49' E 131°57'411.6
2018-Apr-18 12:28N 33°50' E 131°51'712.2
2018-Apr-18 11:53N 33°55' E 131°46'612.2
2018-Apr-18 11:23N 33°60' E 131°41'5 0.4
2018-Apr-17 22:39N 34°04' E 131°44'1 6.6
2018-Apr-17 22:28N 34°03' E 131°43'0 0.8
2018-Apr-17 22:01N 34°03' E 131°43'0 0.0
2018-Apr-17 21:29N 34°03' E 131°43'0 0.0
2018-Apr-17 21:00N 34°03' E 131°43'0 0.0
2018-Apr-17 20:30N 34°03' E 131°43'0 0.0
2018-Apr-17 19:59N 34°03' E 131°43'0 0.0
2018-Apr-17 19:30N 34°03' E 131°43'0 0.0
2018-Apr-17 18:58N 34°03' E 131°43'0 0.0
2018-Apr-17 18:30N 34°03' E 131°43'0 0.0
2018-Apr-17 18:00N 34°03' E 131°43'0 0.0
2018-Apr-17 17:30N 34°03' E 131°43'0 0.1
2018-Apr-17 16:59N 34°03' E 131°43'0 0.1
2018-Apr-17 16:30N 34°03' E 131°43'4 7.2
2018-Apr-17 15:58N 33°59' E 131°42'612.2
2018-Apr-17 15:30N 33°55' E 131°46'612.4
2018-Apr-17 15:00N 33°50' E 131°52'612.3
2018-Apr-17 14:30N 33°46' E 131°57'612.4
2018-Apr-17 14:00N 33°46' E 132°04'3011.7
2018-Apr-17 11:28N 33°55' E 132°38'510.7
2018-Apr-17 11:00N 33°58' E 132°43'7910.9
2018-Apr-17 03:45N 34°25' E 134°13'311.0
2018-Apr-17 03:26N 34°23' E 134°17'512.4
2018-Apr-17 03:00N 34°21' E 134°23'612.4
2018-Apr-17 02:30N 34°18' E 134°30'612.3
2018-Apr-17 01:59N 34°16' E 134°37'5 9.8
2018-Apr-17 01:28N 34°12' E 134°41'511.9
2018-Apr-17 01:00N 34°08' E 134°45'612.3
2018-Apr-17 00:30N 34°03' E 134°50'612.6
2018-Apr-17 00:00N 33°58' E 134°55'612.6
2018-Apr-16 23:30N 33°53' E 134°59'65 9.1
2018-Apr-16 16:18N 33°56' E 136°18'1111.6
2018-Apr-16 15:23N 34°03' E 136°28'1111.9
2018-Apr-16 14:29N 34°07' E 136°39'612.2
2018-Apr-16 14:00N 34°10' E 136°46'31 9.8
2018-Apr-16 10:53N 34°40' E 136°50'513.4
2018-Apr-16 10:30N 34°45' E 136°47'713.3
2018-Apr-16 10:00N 34°51' E 136°46'612.6
2018-Apr-16 09:31N 34°57' E 136°47'611.5
2018-Apr-16 09:01N 35°02' E 136°51'1 3.0
2018-Apr-16 08:30N 35°03' E 136°53'0 0.0
2018-Apr-16 08:00N 35°03' E 136°53'0 0.0
2018-Apr-16 07:30N 35°03' E 136°53'0 0.0
2018-Apr-16 06:59N 35°03' E 136°53'0 0.0
2018-Apr-16 06:30N 35°03' E 136°53'0 0.0
2018-Apr-16 06:00N 35°03' E 136°53'0 0.0
2018-Apr-16 05:30N 35°03' E 136°53'0 0.0
2018-Apr-16 05:00N 35°03' E 136°53'0 0.0
2018-Apr-16 04:30N 35°03' E 136°53'0 0.0
2018-Apr-16 04:00N 35°03' E 136°53'0 0.0
2018-Apr-16 03:30N 35°03' E 136°53'0 0.0
2018-Apr-16 03:00N 35°03' E 136°53'0 0.3
2018-Apr-16 02:30N 35°03' E 136°53'2 3.9
2018-Apr-16 02:01N 35°04' E 136°51'0 0.0
2018-Apr-16 01:30N 35°04' E 136°51'0 0.0
2018-Apr-16 01:00N 35°04' E 136°51'0 0.0
2018-Apr-16 00:30N 35°04' E 136°51'0 0.0
2018-Apr-16 00:01N 35°04' E 136°51'0 0.0
2018-Apr-14 07:09N 35°04' E 136°51'0 0.4
2018-Apr-14 07:00N 35°04' E 136°52'5 9.2
2018-Apr-14 06:31N 34°60' E 136°50'611.6
2018-Apr-14 06:00N 34°55' E 136°47'611.7
2018-Apr-14 05:29N 34°49' E 136°47'612.3
2018-Apr-14 04:59N 34°43' E 136°50'103 7.3
2018-Apr-13 14:55N 33°54' E 135°00'511.8
2018-Apr-13 14:30N 33°57' E 134°56'611.8
2018-Apr-13 14:00N 34°02' E 134°52'611.7
2018-Apr-13 13:29N 34°06' E 134°47'812.4
2018-Apr-13 12:49N 34°12' E 134°40'412.4
2018-Apr-13 12:30N 34°15' E 134°37'511.1
2018-Apr-13 12:00N 34°17' E 134°31'90 8.9
2018-Apr-13 01:54N 33°60' E 132°45'610.6
2018-Apr-13 01:22N 33°55' E 132°40'3310.6
2018-Apr-12 22:14N 33°42' E 132°03'411.6
2018-Apr-12 21:53N 33°43' E 131°58'411.3
2018-Apr-12 21:30N 33°44' E 131°53'511.2
2018-Apr-12 21:00N 33°45' E 131°47'610.9
2018-Apr-12 20:30N 33°46' E 131°40'510.9
2018-Apr-12 20:00N 33°47' E 131°34'510.7
2018-Apr-12 19:30N 33°48' E 131°28'510.8
2018-Apr-12 19:00N 33°49' E 131°21'510.8
2018-Apr-12 18:30N 33°51' E 131°15'510.8
2018-Apr-12 18:00N 33°53' E 131°09'611.4
2018-Apr-12 17:30N 33°56' E 131°03'510.2
2018-Apr-12 17:00N 33°58' E 130°57'4 9.0
2018-Apr-12 16:30N 33°56' E 130°53'3 5.8
2018-Apr-12 16:00N 33°55' E 130°49'0 0.0
2018-Apr-11 22:45N 33°55' E 130°49'2 7.3
2018-Apr-11 22:30N 33°56' E 130°51'2 3.4
2018-Apr-11 22:00N 33°56' E 130°53'0 0.0
2018-Apr-11 21:30N 33°56' E 130°53'3 5.8
2018-Apr-11 21:00N 33°56' E 130°56'610.9
2018-Apr-11 20:30N 33°58' E 131°02'713.0
2018-Apr-11 19:59N 33°54' E 131°09'612.5
2018-Apr-11 19:30N 33°52' E 131°15'612.6
2018-Apr-11 19:00N 33°50' E 131°23'612.8
2018-Apr-11 18:30N 33°49' E 131°30'612.7
2018-Apr-11 18:00N 33°47' E 131°38'712.6
2018-Apr-11 17:27N 33°46' E 131°46'612.7
2018-Apr-11 17:00N 33°45' E 131°53'1512.5
2018-Apr-11 15:47N 33°42' E 132°11'1412.9
2018-Apr-11 14:44N 33°47' E 132°26'312.7
2018-Apr-11 14:29N 33°49' E 132°30'612.9
2018-Apr-11 14:00N 33°53' E 132°35'713.4
2018-Apr-11 13:29N 33°57' E 132°42'7811.2
2018-Apr-11 06:31N 34°26' E 134°10'313.1
2018-Apr-11 06:16N 34°24' E 134°13'612.7
2018-Apr-11 05:47N 34°22' E 134°20'412.5
2018-Apr-11 05:29N 34°21' E 134°24'612.3
2018-Apr-11 04:59N 34°18' E 134°31'612.4
2018-Apr-11 04:28N 34°15' E 134°38'7 1.3
2018-Apr-10 23:26N 34°09' E 134°41'0 0.1
2018-Apr-10 22:51N 34°09' E 134°41'411.3
2018-Apr-10 22:30N 34°06' E 134°44'612.2
2018-Apr-10 22:00N 34°02' E 134°49'611.9
2018-Apr-10 21:30N 33°59' E 134°55'612.3
2018-Apr-10 21:00N 33°54' E 135°00'15510.5
2018-Apr-10 06:16N 34°31' E 138°02'712.0
2018-Apr-10 05:43N 34°33' E 138°10'312.6
2018-Apr-10 05:29N 34°33' E 138°14'812.4
2018-Apr-10 04:51N 34°35' E 138°23'511.6
2018-Apr-10 04:26N 34°35' E 138°29'612.1
2018-Apr-10 03:58N 34°35' E 138°36'612.6
2018-Apr-10 03:30N 34°35' E 138°43'  
Track history (hours):
 
Tides and Currents Weather Stations Pressure Air Temp Water Temp Dewpoint Dewpoint Depression Visibility Wind Speed Wind Dir Waves Ship Positions

Hayase Maru

Last reported at 2018-Apr-20 03:15 UTC. Time now 2018-Apr-21 19:16 UTC.
Position N 34°58' E 140°07'.

Length 73 m; draft 4 m.

Type: Ship. MMSI: 431000395.

Date/timePositionNaut miles runAvg speedWind from/ knotsBaromVisibWave heightAir tempDewpointWater temp
2018-Apr-20 03:15N 34°58' E 140°07'412.6
2018-Apr-20 02:58N 34°56' E 140°03'1112.3
2018-Apr-20 02:04N 34°51' E 139°51'1212.9
2018-Apr-20 01:10N 34°50' E 139°37'1812.9
2018-Apr-19 23:48N 34°46' E 139°16'3 9.4
2018-Apr-19 23:26N 34°44' E 139°12'512.5
2018-Apr-19 23:00N 34°42' E 139°07'712.1
2018-Apr-19 22:24N 34°37' E 138°60'20210.9
2018-Apr-19 03:56N 33°52' E 135°01'613.1
2018-Apr-19 03:29N 33°57' E 134°57'612.8
2018-Apr-19 03:00N 34°01' E 134°52'612.7
2018-Apr-19 02:30N 34°06' E 134°47'712.8
2018-Apr-19 01:56N 34°12' E 134°41'611.5
2018-Apr-19 01:23N 34°16' E 134°36'512.4
2018-Apr-19 01:00N 34°18' E 134°31'612.4
2018-Apr-19 00:30N 34°21' E 134°24'612.0
2018-Apr-18 23:58N 34°24' E 134°17'8010.6
2018-Apr-18 16:25N 33°60' E 132°45'512.9
2018-Apr-18 16:00N 33°56' E 132°41'3412.7
2018-Apr-18 13:20N 33°46' E 132°02'511.1
2018-Apr-18 12:52N 33°49' E 131°57'411.6
2018-Apr-18 12:28N 33°50' E 131°51'712.2
2018-Apr-18 11:53N 33°55' E 131°46'612.2
2018-Apr-18 11:23N 33°60' E 131°41'5 0.4
2018-Apr-17 22:39N 34°04' E 131°44'1 6.6
2018-Apr-17 22:28N 34°03' E 131°43'0 0.8
2018-Apr-17 22:01N 34°03' E 131°43'0 0.0
2018-Apr-17 21:29N 34°03' E 131°43'0 0.0
2018-Apr-17 21:00N 34°03' E 131°43'0 0.0
2018-Apr-17 20:30N 34°03' E 131°43'0 0.0
2018-Apr-17 19:59N 34°03' E 131°43'0 0.0
2018-Apr-17 19:30N 34°03' E 131°43'0 0.0
2018-Apr-17 18:58N 34°03' E 131°43'0 0.0
2018-Apr-17 18:30N 34°03' E 131°43'0 0.0
2018-Apr-17 18:00N 34°03' E 131°43'0 0.0
2018-Apr-17 17:30N 34°03' E 131°43'0 0.1
2018-Apr-17 16:59N 34°03' E 131°43'0 0.1
2018-Apr-17 16:30N 34°03' E 131°43'4 7.2
2018-Apr-17 15:58N 33°59' E 131°42'612.2
2018-Apr-17 15:30N 33°55' E 131°46'612.4
2018-Apr-17 15:00N 33°50' E 131°52'612.3
2018-Apr-17 14:30N 33°46' E 131°57'612.4
2018-Apr-17 14:00N 33°46' E 132°04'3011.7
2018-Apr-17 11:28N 33°55' E 132°38'510.7
2018-Apr-17 11:00N 33°58' E 132°43'7910.9
2018-Apr-17 03:45N 34°25' E 134°13'311.0
2018-Apr-17 03:26N 34°23' E 134°17'512.4
2018-Apr-17 03:00N 34°21' E 134°23'612.4
2018-Apr-17 02:30N 34°18' E 134°30'612.3
2018-Apr-17 01:59N 34°16' E 134°37'5 9.8
2018-Apr-17 01:28N 34°12' E 134°41'511.9
2018-Apr-17 01:00N 34°08' E 134°45'612.3
2018-Apr-17 00:30N 34°03' E 134°50'612.6
2018-Apr-17 00:00N 33°58' E 134°55'612.6
2018-Apr-16 23:30N 33°53' E 134°59'65 9.1
2018-Apr-16 16:18N 33°56' E 136°18'1111.6
2018-Apr-16 15:23N 34°03' E 136°28'1111.9
2018-Apr-16 14:29N 34°07' E 136°39'612.2
2018-Apr-16 14:00N 34°10' E 136°46'31 9.8
2018-Apr-16 10:53N 34°40' E 136°50'513.4
2018-Apr-16 10:30N 34°45' E 136°47'713.3
2018-Apr-16 10:00N 34°51' E 136°46'612.6
2018-Apr-16 09:31N 34°57' E 136°47'611.5
2018-Apr-16 09:01N 35°02' E 136°51'1 3.0
2018-Apr-16 08:30N 35°03' E 136°53'0 0.0
2018-Apr-16 08:00N 35°03' E 136°53'0 0.0
2018-Apr-16 07:30N 35°03' E 136°53'0 0.0
2018-Apr-16 06:59N 35°03' E 136°53'0 0.0
2018-Apr-16 06:30N 35°03' E 136°53'0 0.0
2018-Apr-16 06:00N 35°03' E 136°53'0 0.0
2018-Apr-16 05:30N 35°03' E 136°53'0 0.0
2018-Apr-16 05:00N 35°03' E 136°53'0 0.0
2018-Apr-16 04:30N 35°03' E 136°53'0 0.0
2018-Apr-16 04:00N 35°03' E 136°53'0 0.0
2018-Apr-16 03:30N 35°03' E 136°53'0 0.0
2018-Apr-16 03:00N 35°03' E 136°53'0 0.3
2018-Apr-16 02:30N 35°03' E 136°53'2 3.9
2018-Apr-16 02:01N 35°04' E 136°51'0 0.0
2018-Apr-16 01:30N 35°04' E 136°51'0 0.0
2018-Apr-16 01:00N 35°04' E 136°51'0 0.0
2018-Apr-16 00:30N 35°04' E 136°51'0 0.0
2018-Apr-16 00:01N 35°04' E 136°51'0 0.0
2018-Apr-14 07:09N 35°04' E 136°51'0 0.4
2018-Apr-14 07:00N 35°04' E 136°52'5 9.2
2018-Apr-14 06:31N 34°60' E 136°50'611.6
2018-Apr-14 06:00N 34°55' E 136°47'611.7
2018-Apr-14 05:29N 34°49' E 136°47'612.3
2018-Apr-14 04:59N 34°43' E 136°50'103 7.3
2018-Apr-13 14:55N 33°54' E 135°00'511.8
2018-Apr-13 14:30N 33°57' E 134°56'611.8
2018-Apr-13 14:00N 34°02' E 134°52'611.7
2018-Apr-13 13:29N 34°06' E 134°47'812.4
2018-Apr-13 12:49N 34°12' E 134°40'412.4
2018-Apr-13 12:30N 34°15' E 134°37'511.1
2018-Apr-13 12:00N 34°17' E 134°31'90 8.9
2018-Apr-13 01:54N 33°60' E 132°45'610.6
2018-Apr-13 01:22N 33°55' E 132°40'3310.6
2018-Apr-12 22:14N 33°42' E 132°03'411.6
2018-Apr-12 21:53N 33°43' E 131°58'411.3
2018-Apr-12 21:30N 33°44' E 131°53'511.2
2018-Apr-12 21:00N 33°45' E 131°47'610.9
2018-Apr-12 20:30N 33°46' E 131°40'510.9
2018-Apr-12 20:00N 33°47' E 131°34'510.7
2018-Apr-12 19:30N 33°48' E 131°28'510.8
2018-Apr-12 19:00N 33°49' E 131°21'510.8
2018-Apr-12 18:30N 33°51' E 131°15'510.8
2018-Apr-12 18:00N 33°53' E 131°09'611.4
2018-Apr-12 17:30N 33°56' E 131°03'510.2
2018-Apr-12 17:00N 33°58' E 130°57'4 9.0
2018-Apr-12 16:30N 33°56' E 130°53'3 5.8
2018-Apr-12 16:00N 33°55' E 130°49'0 0.0
2018-Apr-11 22:45N 33°55' E 130°49'2 7.3
2018-Apr-11 22:30N 33°56' E 130°51'2 3.4
2018-Apr-11 22:00N 33°56' E 130°53'0 0.0
2018-Apr-11 21:30N 33°56' E 130°53'3 5.8
2018-Apr-11 21:00N 33°56' E 130°56'610.9
2018-Apr-11 20:30N 33°58' E 131°02'713.0
2018-Apr-11 19:59N 33°54' E 131°09'612.5
2018-Apr-11 19:30N 33°52' E 131°15'612.6
2018-Apr-11 19:00N 33°50' E 131°23'612.8
2018-Apr-11 18:30N 33°49' E 131°30'612.7
2018-Apr-11 18:00N 33°47' E 131°38'712.6
2018-Apr-11 17:27N 33°46' E 131°46'612.7
2018-Apr-11 17:00N 33°45' E 131°53'1512.5
2018-Apr-11 15:47N 33°42' E 132°11'1412.9
2018-Apr-11 14:44N 33°47' E 132°26'312.7
2018-Apr-11 14:29N 33°49' E 132°30'612.9
2018-Apr-11 14:00N 33°53' E 132°35'713.4
2018-Apr-11 13:29N 33°57' E 132°42'7811.2
2018-Apr-11 06:31N 34°26' E 134°10'313.1
2018-Apr-11 06:16N 34°24' E 134°13'612.7
2018-Apr-11 05:47N 34°22' E 134°20'412.5
2018-Apr-11 05:29N 34°21' E 134°24'612.3
2018-Apr-11 04:59N 34°18' E 134°31'612.4
2018-Apr-11 04:28N 34°15' E 134°38'7 1.3
2018-Apr-10 23:26N 34°09' E 134°41'0 0.1
2018-Apr-10 22:51N 34°09' E 134°41'411.3
2018-Apr-10 22:30N 34°06' E 134°44'612.2
2018-Apr-10 22:00N 34°02' E 134°49'611.9
2018-Apr-10 21:30N 33°59' E 134°55'612.3
2018-Apr-10 21:00N 33°54' E 135°00'15510.5
2018-Apr-10 06:16N 34°31' E 138°02'712.0
2018-Apr-10 05:43N 34°33' E 138°10'312.6
2018-Apr-10 05:29N 34°33' E 138°14'812.4
2018-Apr-10 04:51N 34°35' E 138°23'511.6
2018-Apr-10 04:26N 34°35' E 138°29'612.1
2018-Apr-10 03:58N 34°35' E 138°36'612.6
2018-Apr-10 03:30N 34°35' E 138°43'  

Dump ship's entire track history